createdAt,value
2019-02-27T00:01:08.183Z,102425.35
2019-02-27T00:03:39.286Z,102426.80
2019-02-27T00:06:17.598Z,102420.11
2019-02-27T00:08:51.800Z,102418.59
2019-02-27T00:11:21.551Z,102424.70
2019-02-27T00:13:58.555Z,102423.87
2019-02-27T00:16:37.355Z,102422.92
2019-02-27T00:19:08.482Z,102420.82
2019-02-27T00:21:40.921Z,102427.53
2019-02-27T00:24:15.547Z,102426.16
2019-02-27T00:26:47.058Z,102418.71
2019-02-27T00:29:20.942Z,102418.47
2019-02-27T00:31:51.836Z,102418.82
2019-02-27T00:34:24.698Z,102427.07
2019-02-27T00:36:58.033Z,102418.45
2019-02-27T00:39:31.291Z,102420.84
2019-02-27T00:42:07.037Z,102413.68
2019-02-27T00:44:39.133Z,102412.77
2019-02-27T00:47:09.946Z,102405.52
2019-02-27T00:49:44.782Z,102407.89
2019-02-27T00:52:18.051Z,102399.92
2019-02-27T00:54:44.282Z,102399.17
2019-02-27T00:57:20.596Z,102401.73
2019-02-27T00:59:47.610Z,102403.44
2019-02-27T01:02:20.248Z,102405.92
2019-02-27T01:04:49.881Z,102396.73
2019-02-27T01:07:20.658Z,102397.84
2019-02-27T01:09:49.847Z,102390.63
2019-02-27T01:12:25.234Z,102385.20
2019-02-27T01:14:54.328Z,102387.16
2019-02-27T01:17:24.811Z,102390.98
2019-02-27T01:19:53.930Z,102381.77
2019-02-27T01:22:24.536Z,102386.84
2019-02-27T01:24:55.603Z,102381.31
2019-02-27T01:27:26.511Z,102380.96
2019-02-27T01:30:00.728Z,102370.45
2019-02-27T01:32:32.522Z,102373.86
2019-02-27T01:35:06.012Z,102369.63
2019-02-27T01:37:37.524Z,102369.89
2019-02-27T01:40:08.180Z,102362.22
2019-02-27T01:42:40.351Z,102361.66
2019-02-27T01:45:20.710Z,102357.77
2019-02-27T01:47:53.016Z,102350.61
2019-02-27T01:50:29.966Z,102351.25
2019-02-27T01:53:07.034Z,102353.13
2019-02-27T01:55:40.317Z,102353.01
2019-02-27T01:58:12.892Z,102356.08
2019-02-27T02:00:43.943Z,102345.15
2019-02-27T02:03:16.529Z,102345.15
2019-02-27T02:05:48.479Z,102346.41
2019-02-27T02:08:20.801Z,102343.20
2019-02-27T02:10:52.134Z,102329.66
2019-02-27T02:13:42.884Z,102337.54
2019-02-27T02:16:39.847Z,102335.89
2019-02-27T02:19:41.684Z,102330.15
2019-02-27T02:22:25.254Z,102320.38
2019-02-27T02:25:54.020Z,102321.02
2019-02-27T02:29:09.091Z,102316.66
2019-02-27T02:31:50.999Z,102315.73
2019-02-27T02:34:51.415Z,102314.64
2019-02-27T02:37:51.179Z,102305.55
2019-02-27T02:40:52.495Z,102304.30
2019-02-27T02:43:47.617Z,102301.31
2019-02-27T02:46:33.971Z,102306.22
2019-02-27T02:49:44.023Z,102305.92
2019-02-27T02:53:06.156Z,102299.31
2019-02-27T02:56:03.486Z,102293.30
2019-02-27T02:59:07.869Z,102288.10
2019-02-27T03:01:53.868Z,102275.08
2019-02-27T03:04:59.674Z,102274.81
2019-02-27T03:07:49.027Z,102270.38
2019-02-27T03:10:52.799Z,102268.73
2019-02-27T03:13:45.669Z,102258.42
2019-02-27T03:16:44.085Z,102256.11
2019-02-27T03:19:28.307Z,102248.47
2019-02-27T03:22:24.937Z,102245.53
2019-02-27T03:25:16.082Z,102248.23
2019-02-27T03:28:46.072Z,102247.81
2019-02-27T03:31:37.571Z,102246.08
2019-02-27T03:34:47.994Z,102238.67
2019-02-27T03:37:24.650Z,102232.58
2019-02-27T03:40:36.453Z,102236.36
2019-02-27T03:43:54.167Z,102233.41
2019-02-27T03:46:54.515Z,102230.22
2019-02-27T03:49:40.969Z,102221.75
2019-02-27T03:52:50.152Z,102225.18
2019-02-27T03:55:46.043Z,102221.47
2019-02-27T03:58:43.651Z,102227.89
2019-02-27T04:01:46.081Z,102214.98
2019-02-27T04:04:37.222Z,102218.14
2019-02-27T04:07:44.355Z,102217.86
2019-02-27T04:10:17.928Z,102215.78
2019-02-27T04:12:54.212Z,102222.16
2019-02-27T04:15:23.264Z,102213.27
2019-02-27T04:17:52.372Z,102222.00
2019-02-27T04:20:26.838Z,102217.20
2019-02-27T04:23:03.005Z,102215.11
2019-02-27T04:25:32.273Z,102218.38
2019-02-27T04:28:05.076Z,102215.70
2019-02-27T04:30:34.890Z,102220.06
2019-02-27T04:33:08.670Z,102214.67
2019-02-27T04:35:45.548Z,102211.53
2019-02-27T04:38:15.814Z,102211.33
2019-02-27T04:40:46.177Z,102206.14
2019-02-27T04:43:17.000Z,102211.33
2019-02-27T04:45:48.684Z,102203.37
2019-02-27T04:48:24.362Z,102204.08
2019-02-27T04:50:53.963Z,102201.17
2019-02-27T04:53:24.945Z,102194.50
2019-02-27T04:55:57.288Z,102195.76
2019-02-27T04:58:35.865Z,102192.69
2019-02-27T05:01:10.750Z,102193.63
2019-02-27T05:03:47.416Z,102185.72
2019-02-27T05:06:18.085Z,102191.51
2019-02-27T05:08:55.038Z,102184.59
2019-02-27T05:11:28.677Z,102183.65
2019-02-27T05:14:32.418Z,102182.31
2019-02-27T05:17:15.576Z,102176.61
2019-02-27T05:19:44.126Z,102180.73
2019-02-27T05:22:12.652Z,102167.99
2019-02-27T05:24:45.314Z,102174.43
2019-02-27T05:27:14.608Z,102180.48
2019-02-27T05:29:46.160Z,102172.38
2019-02-27T05:32:18.207Z,102169.64
2019-02-27T05:34:49.932Z,102170.97
2019-02-27T05:37:22.798Z,102171.69
2019-02-27T05:39:52.599Z,102175.27
2019-02-27T05:42:22.190Z,102177.46
2019-02-27T05:44:56.927Z,102177.86
2019-02-27T05:47:29.277Z,102177.97
2019-02-27T05:50:01.818Z,102175.41
2019-02-27T05:52:32.756Z,102171.23
2019-02-27T05:55:06.131Z,102170.69
2019-02-27T05:57:39.009Z,102175.05
2019-02-27T06:00:12.610Z,102166.80
2019-02-27T06:02:46.206Z,102168.48
2019-02-27T06:05:22.865Z,102166.36
2019-02-27T06:08:03.136Z,102160.17
2019-02-27T06:10:33.987Z,102158.17
2019-02-27T06:13:02.948Z,102158.77
2019-02-27T06:15:35.710Z,102159.59
2019-02-27T06:18:06.283Z,102152.77
2019-02-27T06:20:38.939Z,102155.94
2019-02-27T06:23:31.357Z,102156.06
2019-02-27T06:26:09.129Z,102153.87
2019-02-27T06:28:43.531Z,102155.52
2019-02-27T06:31:16.125Z,102156.26
2019-02-27T06:33:51.632Z,102155.50
2019-02-27T06:36:26.364Z,102152.91
2019-02-27T06:39:01.407Z,102159.72
2019-02-27T06:41:34.759Z,102151.69
2019-02-27T06:44:04.491Z,102161.39
2019-02-27T06:46:34.543Z,102153.00
2019-02-27T06:49:05.731Z,102154.08
2019-02-27T06:51:36.602Z,102149.83
2019-02-27T06:54:05.823Z,102156.97
2019-02-27T06:56:36.807Z,102155.45
2019-02-27T06:59:09.013Z,102160.49
2019-02-27T07:01:41.027Z,102155.17
2019-02-27T07:04:16.050Z,102158.97
2019-02-27T07:06:49.669Z,102164.91
2019-02-27T07:09:21.595Z,102151.70
2019-02-27T07:11:59.633Z,102154.98
2019-02-27T07:14:28.368Z,102153.02
2019-02-27T07:17:02.364Z,102149.86
2019-02-27T07:19:34.546Z,102147.11
2019-02-27T07:22:06.306Z,102152.88
2019-02-27T07:24:54.759Z,102154.69
2019-02-27T07:27:25.328Z,102153.16
2019-02-27T07:29:59.399Z,102149.87
2019-02-27T07:32:36.521Z,102147.91
2019-02-27T07:35:12.275Z,102148.99
2019-02-27T07:37:47.961Z,102151.39
2019-02-27T07:40:18.530Z,102142.91
2019-02-27T07:42:47.843Z,102152.12
2019-02-27T07:45:17.154Z,102148.73
2019-02-27T07:47:48.278Z,102146.05
2019-02-27T07:50:18.307Z,102141.47
2019-02-27T07:52:53.136Z,102142.86
2019-02-27T07:55:28.223Z,102137.94
2019-02-27T07:58:00.537Z,102125.97
2019-02-27T08:00:35.887Z,102132.23
2019-02-27T08:03:09.051Z,102133.49
2019-02-27T08:05:46.035Z,102129.55
2019-02-27T08:08:16.958Z,102131.70
2019-02-27T08:10:52.457Z,102122.63
2019-02-27T08:13:21.216Z,102114.87
2019-02-27T08:15:54.612Z,102117.58
2019-02-27T08:18:36.562Z,102119.52
2019-02-27T08:21:04.100Z,102123.12
2019-02-27T08:23:35.980Z,102120.24
2019-02-27T08:26:06.148Z,102116.45
2019-02-27T08:28:36.053Z,102118.25
2019-02-27T08:31:07.597Z,102111.42
2019-02-27T08:33:37.826Z,102109.68
2019-02-27T08:36:10.291Z,102109.75
2019-02-27T08:38:39.438Z,102113.39
2019-02-27T08:41:09.911Z,102109.99
2019-02-27T08:43:41.239Z,102104.36
2019-02-27T08:46:13.008Z,102102.65
2019-02-27T08:48:49.900Z,102104.83
2019-02-27T08:51:17.762Z,102105.73
2019-02-27T08:53:53.804Z,102096.60
2019-02-27T08:56:25.820Z,102088.34
2019-02-27T08:58:55.779Z,102084.00
2019-02-27T09:01:29.038Z,102082.28
2019-02-27T09:03:57.961Z,102083.20
2019-02-27T09:06:28.341Z,102070.55
2019-02-27T09:09:04.465Z,102072.30
2019-02-27T09:11:42.382Z,102064.88
2019-02-27T09:14:15.107Z,102058.77
2019-02-27T09:16:43.715Z,102053.92
2019-02-27T09:21:41.701Z,102032.88
2019-02-27T09:24:17.855Z,102038.53
2019-02-27T09:26:54.041Z,102026.65
2019-02-27T09:29:25.444Z,102019.11
2019-02-27T09:31:57.040Z,102022.44
2019-02-27T09:34:32.755Z,102025.48
2019-02-27T09:37:02.306Z,102021.02
2019-02-27T09:39:35.240Z,102021.02
2019-02-27T09:42:09.253Z,102017.46
2019-02-27T09:44:44.999Z,102016.80
2019-02-27T09:47:16.060Z,102018.45
2019-02-27T09:49:46.700Z,102018.45
2019-02-27T09:52:17.550Z,102014.42
2019-02-27T09:54:51.520Z,102002.48
2019-02-27T09:57:23.459Z,102006.69
2019-02-27T09:59:57.210Z,101952.80
2019-02-27T10:02:26.186Z,102000.23
2019-02-27T10:05:01.417Z,101995.67
2019-02-27T10:07:32.166Z,101993.34
2019-02-27T10:10:10.218Z,101996.67
2019-02-27T10:12:42.286Z,101985.95
2019-02-27T10:15:16.109Z,101980.55
2019-02-27T10:17:44.329Z,101974.05
2019-02-27T10:20:16.409Z,101977.47
2019-02-27T10:22:45.583Z,101979.11
2019-02-27T10:25:17.217Z,101975.53
2019-02-27T10:27:49.517Z,101979.28
2019-02-27T10:30:21.896Z,101975.53
2019-02-27T10:32:54.249Z,101966.30
2019-02-27T10:35:29.379Z,101953.16
2019-02-27T10:37:59.817Z,101952.31
2019-02-27T10:40:32.067Z,101954.55
2019-02-27T10:43:03.797Z,101936.81
2019-02-27T10:45:42.102Z,101940.50
2019-02-27T10:48:13.389Z,101934.31
2019-02-27T10:50:46.001Z,101937.09
2019-02-27T10:53:27.469Z,101929.75
2019-02-27T10:55:58.870Z,101921.92
2019-02-27T10:58:33.751Z,101914.09
2019-02-27T11:01:09.641Z,101914.53
2019-02-27T11:03:39.793Z,101903.92
2019-02-27T11:06:12.450Z,101911.21
2019-02-27T11:08:43.311Z,101904.83
2019-02-27T11:11:13.193Z,101898.63
2019-02-27T11:13:51.728Z,101885.83
2019-02-27T11:16:25.332Z,101871.87
2019-02-27T11:18:57.727Z,101876.31
2019-02-27T11:21:29.586Z,101874.69
2019-02-27T11:24:02.799Z,101868.08
2019-02-27T11:26:41.915Z,101866.02
2019-02-27T11:29:14.085Z,101855.77
2019-02-27T11:31:45.593Z,101856.37
2019-02-27T11:34:16.149Z,101853.09
2019-02-27T11:36:45.145Z,101845.95
2019-02-27T11:39:16.630Z,101838.61
2019-02-27T11:41:49.180Z,101827.73
2019-02-27T11:44:21.832Z,101831.27
2019-02-27T11:46:58.620Z,101822.75
2019-02-27T11:49:29.655Z,101827.00
2019-02-27T11:51:58.530Z,101814.42
2019-02-27T11:54:33.888Z,101809.76
2019-02-27T11:57:07.669Z,101805.31
2019-02-27T11:59:37.906Z,101804.03
2019-02-27T12:02:10.365Z,101802.98
2019-02-27T12:04:41.100Z,101794.12
2019-02-27T12:07:12.297Z,101792.23
2019-02-27T12:09:43.984Z,101786.33
2019-02-27T12:12:14.199Z,101788.06
2019-02-27T12:14:47.855Z,101780.73
2019-02-27T12:17:18.205Z,101777.48
2019-02-27T12:19:53.588Z,101766.39
2019-02-27T12:22:24.414Z,101760.81
2019-02-27T12:25:00.872Z,101754.12
2019-02-27T12:27:48.787Z,101754.94
2019-02-27T12:30:14.126Z,101749.72
2019-02-27T12:32:46.260Z,101745.59
2019-02-27T12:35:20.834Z,101727.88
2019-02-27T12:37:51.424Z,101721.27
2019-02-27T12:40:24.997Z,101708.22
2019-02-27T12:42:55.864Z,101708.12
2019-02-27T12:45:29.694Z,101701.69
2019-02-27T12:48:04.583Z,101691.82
2019-02-27T12:50:38.592Z,101691.14
2019-02-27T12:53:08.000Z,101683.47
2019-02-27T12:55:38.475Z,101682.16
2019-02-27T12:58:09.135Z,101671.78
2019-02-27T13:00:39.929Z,101672.08
2019-02-27T13:03:13.048Z,101676.42
2019-02-27T13:05:51.673Z,101664.44
2019-02-27T13:08:26.924Z,101660.66
2019-02-27T13:10:57.484Z,101657.71
2019-02-27T13:13:26.521Z,101655.64
2019-02-27T13:15:57.088Z,101652.27
2019-02-27T13:18:32.030Z,101651.53
2019-02-27T13:21:01.555Z,101648.41
2019-02-27T13:23:36.381Z,101643.65
2019-02-27T13:26:08.508Z,101644.33
2019-02-27T13:28:41.446Z,101640.77
2019-02-27T13:31:13.655Z,101623.49
2019-02-27T13:33:48.316Z,101625.68
2019-02-27T13:36:20.308Z,101616.22
2019-02-27T13:38:51.971Z,101615.20
2019-02-27T13:41:20.572Z,101609.19
2019-02-27T13:43:49.517Z,101600.63
2019-02-27T13:46:22.723Z,101593.00
2019-02-27T13:48:55.571Z,101584.72
2019-02-27T13:51:29.059Z,101582.75
2019-02-27T13:54:00.547Z,101573.01
2019-02-27T13:56:30.830Z,101568.63
2019-02-27T13:59:02.910Z,101566.66
2019-02-27T14:01:34.576Z,101562.09
2019-02-27T14:04:08.613Z,101557.65
2019-02-27T14:06:42.858Z,101548.83
2019-02-27T14:09:19.020Z,101540.03
2019-02-27T14:11:51.325Z,101536.14
2019-02-27T14:14:23.948Z,101530.11
2019-02-27T14:16:57.632Z,101530.73
2019-02-27T14:19:28.198Z,101530.02
2019-02-27T14:21:56.799Z,101527.95
2019-02-27T14:24:25.816Z,101524.70
2019-02-27T14:26:54.425Z,101526.40
2019-02-27T14:29:29.795Z,101523.61
2019-02-27T14:32:04.714Z,101517.55
2019-02-27T14:34:35.888Z,101517.46
2019-02-27T14:37:08.270Z,101517.61
2019-02-27T14:39:38.190Z,101515.94
2019-02-27T14:42:10.216Z,101519.98
2019-02-27T14:44:41.119Z,101516.73
2019-02-27T14:47:16.435Z,101508.16
2019-02-27T14:49:47.155Z,101501.77
2019-02-27T14:52:16.289Z,101497.63
2019-02-27T14:54:45.145Z,101495.32
2019-02-27T14:57:16.100Z,101491.77
2019-02-27T14:59:47.581Z,101492.49
2019-02-27T15:02:22.415Z,101485.19
2019-02-27T15:04:56.647Z,101482.00
2019-02-27T15:07:27.152Z,101475.00
2019-02-27T15:09:57.163Z,101478.47
2019-02-27T15:12:33.948Z,101475.98
2019-02-27T15:15:02.959Z,101472.18
2019-02-27T15:17:38.786Z,101462.84
2019-02-27T15:20:09.497Z,101466.27
2019-02-27T15:22:38.562Z,101462.94
2019-02-27T15:25:12.428Z,101456.52
2019-02-27T15:27:41.460Z,101452.80
2019-02-27T15:30:28.068Z,101441.22
2019-02-27T15:32:56.991Z,101447.28
2019-02-27T15:35:28.440Z,101438.77
2019-02-27T15:37:57.573Z,101442.38
2019-02-27T15:40:33.829Z,101436.13
2019-02-27T15:43:11.010Z,101426.84
2019-02-27T15:45:35.303Z,101426.27
2019-02-27T15:48:06.879Z,101425.83
2019-02-27T15:50:38.016Z,101418.49
2019-02-27T15:53:07.227Z,101411.99
2019-02-27T15:55:39.266Z,101409.05
2019-02-27T15:58:11.724Z,101413.56
2019-02-27T16:00:44.124Z,101402.44
2019-02-27T16:03:13.131Z,101402.78
2019-02-27T16:05:47.381Z,101393.50
2019-02-27T16:08:16.372Z,101391.61
2019-02-27T16:10:54.770Z,101388.88
2019-02-27T16:13:19.427Z,101390.63
2019-02-27T16:15:49.307Z,101383.49
2019-02-27T16:18:22.748Z,101379.59
2019-02-27T16:20:51.820Z,101376.94
2019-02-27T16:23:23.843Z,101367.25
2019-02-27T16:25:54.933Z,101362.44
2019-02-27T16:28:25.576Z,101361.63
2019-02-27T16:31:05.944Z,101355.95
2019-02-27T16:33:31.827Z,101353.80
2019-02-27T16:36:02.521Z,101344.66
2019-02-27T16:38:33.741Z,101341.11
2019-02-27T16:41:04.517Z,101349.38
2019-02-27T16:43:33.485Z,101348.61
2019-02-27T16:46:07.687Z,101346.47
2019-02-27T16:48:35.660Z,101346.27
2019-02-27T16:51:04.728Z,101347.14
2019-02-27T16:53:33.652Z,101343.78
2019-02-27T16:56:11.860Z,101347.11
2019-02-27T16:58:41.642Z,101344.19
2019-02-27T17:01:12.159Z,101339.95
2019-02-27T17:03:41.370Z,101338.37
2019-02-27T17:06:10.430Z,101338.69
2019-02-27T17:08:42.762Z,101336.53
2019-02-27T17:11:16.569Z,101332.37
2019-02-27T17:13:46.961Z,101329.39
2019-02-27T17:16:15.339Z,101333.15
2019-02-27T17:18:44.617Z,101327.75
2019-02-27T17:21:16.521Z,101326.75
2019-02-27T17:23:46.703Z,101323.86
2019-02-27T17:26:15.602Z,101324.22
2019-02-27T17:28:44.422Z,101324.52
2019-02-27T17:31:13.622Z,101322.47
2019-02-27T17:33:42.700Z,101314.80
2019-02-27T17:36:13.658Z,101310.46
2019-02-27T17:38:45.253Z,101310.83
2019-02-27T17:41:16.162Z,101319.91
2019-02-27T17:43:45.910Z,101314.94
2019-02-27T17:46:14.938Z,101324.39
2019-02-27T17:48:45.947Z,101316.90
2019-02-27T17:51:14.821Z,101309.53
2019-02-27T17:53:45.894Z,101296.52
2019-02-27T17:56:15.663Z,101309.03
2019-02-27T17:58:45.279Z,101304.34
2019-02-27T18:01:16.508Z,101298.81
2019-02-27T18:04:05.706Z,101302.44
2019-02-27T18:06:36.632Z,101293.19
2019-02-27T18:09:30.404Z,101287.42
2019-02-27T18:11:59.259Z,101278.96
2019-02-27T18:14:28.188Z,101277.45
2019-02-27T18:16:59.211Z,101273.44
2019-02-27T18:19:28.159Z,101272.05
2019-02-27T18:21:57.366Z,101267.00
2019-02-27T18:24:26.438Z,101257.99
2019-02-27T18:26:55.300Z,101254.17
2019-02-27T18:29:28.748Z,101247.77
2019-02-27T18:32:01.190Z,101250.99
2019-02-27T18:34:28.524Z,101253.48
2019-02-27T18:37:00.703Z,101250.67
2019-02-27T18:39:29.846Z,101248.20
2019-02-27T18:42:00.048Z,101242.57
2019-02-27T18:44:29.289Z,101229.33
2019-02-27T18:47:02.411Z,101235.59
2019-02-27T18:49:32.314Z,101229.97
2019-02-27T18:52:06.410Z,101227.58
2019-02-27T18:54:32.357Z,101231.67
2019-02-27T18:57:03.308Z,101227.41
2019-02-27T18:59:32.113Z,101227.41
2019-02-27T19:02:07.393Z,101225.34
2019-02-27T19:04:36.617Z,101222.55
2019-02-27T19:07:05.688Z,101222.58
2019-02-27T19:09:34.792Z,101215.16
2019-02-27T19:12:05.542Z,101215.16
2019-02-27T19:14:36.750Z,101201.42
2019-02-27T19:17:07.214Z,101201.42
2019-02-27T19:19:38.026Z,101194.41
2019-02-27T19:22:08.038Z,101184.00
2019-02-27T19:24:41.498Z,101176.91
2019-02-27T19:27:10.801Z,101179.16
2019-02-27T19:29:40.094Z,101181.85
2019-02-27T19:32:09.210Z,101166.95
2019-02-27T19:34:38.329Z,101173.13
2019-02-27T19:37:07.382Z,101167.92
2019-02-27T19:39:38.254Z,101164.11
2019-02-27T20:09:56.453Z,101147.70
2019-02-27T20:12:25.306Z,101141.68
2019-02-27T20:14:54.251Z,101134.79
2019-02-27T20:17:32.853Z,101139.73
2019-02-27T20:20:00.530Z,101142.42
2019-02-27T20:22:30.041Z,101140.72
2019-02-27T20:25:02.405Z,101134.11
2019-02-27T20:27:31.706Z,101127.89
2019-02-27T20:30:00.454Z,101124.26
2019-02-27T20:32:30.058Z,101119.07
2019-02-27T20:34:59.882Z,101116.58
2019-02-27T20:37:28.819Z,101107.95
2019-02-27T20:39:59.160Z,101105.86
2019-02-27T20:42:28.264Z,101102.92
2019-02-27T20:44:59.231Z,101108.26
2019-02-27T20:47:27.859Z,101105.28
2019-02-27T20:49:58.249Z,101097.41
2019-02-27T20:52:27.761Z,101088.56
2019-02-27T20:54:58.928Z,101084.67
2019-02-27T20:57:27.903Z,101079.12
2019-02-27T21:00:00.498Z,101075.28
2019-02-27T21:02:28.119Z,101072.27
2019-02-27T21:04:57.323Z,101075.33
2019-02-27T21:07:29.526Z,101076.23
2019-02-27T21:09:58.970Z,101069.72
2019-02-27T21:12:27.820Z,101071.47
2019-02-27T21:14:58.586Z,101063.56
2019-02-27T21:17:27.899Z,101068.25
2019-02-27T21:19:59.723Z,101062.64
2019-02-27T21:22:28.469Z,101056.19
2019-02-27T21:24:57.893Z,101051.39
2019-02-27T21:27:28.529Z,101044.45
2019-02-27T21:29:57.502Z,101040.48
2019-02-27T21:32:37.951Z,101035.33
2019-02-27T21:35:07.039Z,101031.95
2019-02-27T21:37:35.789Z,101028.91
2019-02-27T21:40:04.827Z,101028.86
2019-02-27T21:42:33.855Z,101023.70
2019-02-27T21:45:03.598Z,101018.98
2019-02-27T21:47:35.793Z,101016.89
2019-02-27T21:50:07.123Z,101019.47
2019-02-27T21:52:37.470Z,101014.17
2019-02-27T21:55:06.483Z,101019.92
2019-02-27T21:57:36.868Z,101021.92
2019-02-27T22:00:11.381Z,101015.03
2019-02-27T22:02:40.414Z,101012.91
2019-02-27T22:05:09.849Z,101012.08
2019-02-27T22:07:38.630Z,101010.34
2019-02-27T22:10:09.028Z,101003.39
2019-02-27T22:12:38.066Z,101007.38
2019-02-27T22:15:13.426Z,100998.34
2019-02-27T22:17:42.404Z,100999.21
2019-02-27T22:20:12.333Z,100999.48
2019-02-27T22:22:42.358Z,100991.53
2019-02-27T22:25:11.155Z,100990.51
2019-02-27T22:27:39.864Z,100987.77
2019-02-27T22:30:10.917Z,100991.27
2019-02-27T22:32:40.412Z,100978.47
2019-02-27T22:35:09.522Z,100977.17
2019-02-27T22:37:38.344Z,100973.71
2019-02-27T22:40:08.536Z,100976.74
2019-02-27T22:42:39.724Z,100974.51
2019-02-27T22:45:09.283Z,100968.00
2019-02-27T22:47:40.031Z,100976.00
2019-02-27T22:50:10.213Z,100979.21
2019-02-27T22:52:39.326Z,100977.50
2019-02-27T22:55:10.728Z,100973.47
2019-02-27T22:57:40.634Z,100964.53
2019-02-27T23:00:42.967Z,100964.73
2019-02-27T23:03:11.091Z,100967.04
2019-02-27T23:05:40.260Z,100964.10
2019-02-27T23:08:10.938Z,100960.80
2019-02-27T23:10:40.090Z,100960.84
2019-02-27T23:13:12.435Z,100963.52
2019-02-27T23:15:41.339Z,100963.12
2019-02-27T23:18:10.097Z,100958.80
2019-02-27T23:20:39.604Z,100951.03
2019-02-27T23:23:08.412Z,100945.42
2019-02-27T23:25:39.479Z,100939.30
2019-02-27T23:28:08.895Z,100942.00
2019-02-27T23:30:37.639Z,100945.45
2019-02-27T23:33:06.894Z,100938.06
2019-02-27T23:35:35.766Z,100927.59
2019-02-27T23:38:05.772Z,100921.92
2019-02-27T23:40:36.278Z,100917.18
2019-02-27T23:43:04.989Z,100912.86
2019-02-27T23:45:33.809Z,100915.47
2019-02-27T23:48:03.057Z,100919.40
2019-02-27T23:50:31.862Z,100919.41
2019-02-27T23:53:02.575Z,100907.70
2019-02-27T23:55:31.621Z,100900.27
2019-02-27T23:58:00.697Z,100894.51
